Time;durP1;ratioP1;P1;durP2;ratioP2;P2;SDS_P1;SDS_P2;PMS_P1;PMS_P2;Temp;Humidity;BMP_temperature;BMP_pressure;BME280_temperature;BME280_humidity;BME280_pressure;Samples;Min_cycle;Max_cycle;Signal;HPM_P1;HPM_P2
2021/11/11 00:00:51;;;;;;;184.20;173.97;;;10.00;99.90;;;;;;4393181;32;20174;-62
2021/11/11 00:03:19;;;;;;;180.47;170.70;;;10.00;99.90;;;;;;4391303;32;20191;-62
2021/11/11 00:05:48;;;;;;;187.27;177.73;;;10.00;99.90;;;;;;4390738;32;20148;-62
2021/11/11 00:08:15;;;;;;;170.03;161.00;;;10.00;99.90;;;;;;4384234;32;20152;-62
2021/11/11 00:10:42;;;;;;;177.10;167.17;;;10.10;99.90;;;;;;4382069;32;20217;-64
2021/11/11 00:13:09;;;;;;;174.60;165.63;;;10.10;99.90;;;;;;4390720;32;20178;-61
2021/11/11 00:15:36;;;;;;;183.37;173.60;;;10.10;99.90;;;;;;4391193;32;20153;-61
2021/11/11 00:18:03;;;;;;;171.07;161.80;;;10.10;99.90;;;;;;4392862;32;20556;-61
2021/11/11 00:20:31;;;;;;;179.13;169.83;;;10.00;99.90;;;;;;4391953;32;20258;-63
2021/11/11 00:23:00;;;;;;;197.57;187.50;;;10.00;99.90;;;;;;4391429;32;20149;-63
2021/11/11 00:25:29;;;;;;;187.00;176.73;;;10.00;99.90;;;;;;4391967;32;20183;-62
2021/11/11 00:27:56;;;;;;;185.53;175.87;;;10.00;99.90;;;;;;4387109;32;20226;-61
2021/11/11 00:30:23;;;;;;;197.17;186.73;;;10.00;99.90;;;;;;4402912;32;20159;-61
2021/11/11 00:32:51;;;;;;;177.10;167.33;;;10.00;99.90;;;;;;4397528;32;20222;-61
2021/11/11 00:35:21;;;;;;;182.53;172.97;;;10.00;99.90;;;;;;4390439;32;20522;-63
2021/11/11 00:37:47;;;;;;;174.00;164.50;;;10.00;99.90;;;;;;4391432;32;20159;-61
2021/11/11 00:40:16;;;;;;;180.10;170.33;;;10.00;99.90;;;;;;4390689;32;20235;-61
2021/11/11 00:42:45;;;;;;;177.33;167.73;;;9.90;99.90;;;;;;4389589;32;20193;-63
2021/11/11 00:45:13;;;;;;;190.17;180.33;;;10.00;99.90;;;;;;4390789;32;20214;-61
2021/11/11 00:47:40;;;;;;;186.73;177.10;;;10.00;99.90;;;;;;4390434;32;20210;-61
2021/11/11 00:50:08;;;;;;;182.73;172.67;;;10.00;99.90;;;;;;4391128;32;20148;-62
2021/11/11 00:52:35;;;;;;;183.90;173.90;;;10.00;99.90;;;;;;4390396;32;20175;-62
2021/11/11 00:55:03;;;;;;;190.00;179.53;;;9.90;99.90;;;;;;4391837;32;20155;-61
2021/11/11 00:57:31;;;;;;;185.47;175.97;;;10.00;99.90;;;;;;4390211;32;20219;-64
2021/11/11 00:59:59;;;;;;;181.73;172.23;;;10.00;99.90;;;;;;4387088;32;20160;-61
2021/11/11 01:02:26;;;;;;;168.13;158.97;;;10.00;99.90;;;;;;4389949;32;20213;-61
2021/11/11 01:04:53;;;;;;;182.33;172.67;;;10.00;99.90;;;;;;4390675;32;20166;-63
2021/11/11 01:07:21;;;;;;;170.37;161.53;;;10.00;99.90;;;;;;4390518;32;20244;-61
2021/11/11 01:09:48;;;;;;;170.67;161.70;;;10.00;99.90;;;;;;4390213;32;20225;-62
2021/11/11 01:12:15;;;;;;;181.77;171.70;;;10.00;99.90;;;;;;4390014;32;20229;-63
2021/11/11 01:14:43;;;;;;;188.17;177.97;;;10.00;99.90;;;;;;4390205;32;20186;-60
2021/11/11 01:17:10;;;;;;;180.37;170.07;;;10.00;99.90;;;;;;4389885;32;20185;-62
2021/11/11 01:19:37;;;;;;;168.97;159.73;;;10.00;99.90;;;;;;4390339;32;20175;-62
2021/11/11 01:22:04;;;;;;;173.23;163.83;;;10.00;99.90;;;;;;4389952;32;20485;-62
2021/11/11 01:24:32;;;;;;;160.03;151.37;;;10.00;99.90;;;;;;4390164;32;20206;-61
2021/11/11 01:26:59;;;;;;;173.03;164.00;;;10.00;99.90;;;;;;4391818;32;20140;-62
2021/11/11 01:29:26;;;;;;;165.70;157.00;;;9.90;99.90;;;;;;4392735;32;20223;-61
2021/11/11 01:31:54;;;;;;;181.33;171.87;;;9.90;99.90;;;;;;4390870;32;20160;-62
2021/11/11 01:34:25;;;;;;;173.43;163.80;;;9.80;99.90;;;;;;4388411;32;20179;-62
2021/11/11 01:36:51;;;;;;;171.80;162.67;;;9.80;99.90;;;;;;4382909;32;20147;-61
2021/11/11 01:39:18;;;;;;;188.57;179.03;;;9.80;99.90;;;;;;4387678;32;20234;-63
2021/11/11 01:41:46;;;;;;;179.83;170.03;;;9.80;99.90;;;;;;4390450;32;20184;-61
2021/11/11 01:44:13;;;;;;;184.87;175.13;;;9.80;99.90;;;;;;4391325;32;20156;-62
2021/11/11 01:46:40;;;;;;;200.37;190.27;;;9.80;99.90;;;;;;4392108;32;20175;-62
2021/11/11 01:49:08;;;;;;;199.47;188.83;;;9.80;99.90;;;;;;4389630;32;20148;-61
2021/11/11 01:51:36;;;;;;;202.20;191.80;;;9.80;99.90;;;;;;4389394;32;20163;-61
2021/11/11 01:54:03;;;;;;;203.70;193.30;;;9.80;99.90;;;;;;4384742;32;20156;-61
2021/11/11 01:56:30;;;;;;;198.77;188.70;;;9.80;99.90;;;;;;4391408;32;20223;-61
2021/11/11 01:58:57;;;;;;;204.87;194.30;;;9.80;99.90;;;;;;4390478;32;20163;-60
2021/11/11 02:01:24;;;;;;;206.80;196.20;;;9.80;99.90;;;;;;4390557;32;20168;-62
2021/11/11 02:03:53;;;;;;;198.90;188.43;;;9.80;99.90;;;;;;4391219;32;20196;-62
2021/11/11 02:06:23;;;;;;;205.43;194.57;;;9.90;99.90;;;;;;4389444;32;20191;-61
2021/11/11 02:08:51;;;;;;;179.67;170.53;;;9.90;99.90;;;;;;4389834;32;20155;-61
2021/11/11 02:11:18;;;;;;;201.60;190.23;;;9.80;99.90;;;;;;4391483;32;20144;-61
2021/11/11 02:13:45;;;;;;;203.83;193.63;;;9.70;99.90;;;;;;4390152;32;20159;-63
2021/11/11 02:16:12;;;;;;;208.00;197.60;;;9.90;99.90;;;;;;4389549;32;20152;-62
2021/11/11 02:18:39;;;;;;;197.20;186.87;;;9.70;99.90;;;;;;4391995;32;20156;-62
2021/11/11 02:21:07;;;;;;;193.40;182.90;;;9.80;99.90;;;;;;4391653;32;20152;-61
2021/11/11 02:23:34;;;;;;;196.40;185.90;;;9.70;99.90;;;;;;4389695;32;20166;-61
2021/11/11 02:26:03;;;;;;;185.63;176.00;;;9.70;99.90;;;;;;4388569;32;20652;-61
2021/11/11 02:28:30;;;;;;;197.57;187.43;;;9.70;99.90;;;;;;4391221;32;20502;-61
2021/11/11 02:30:57;;;;;;;190.43;180.57;;;9.70;99.90;;;;;;4390161;32;20619;-61
2021/11/11 02:33:26;;;;;;;194.43;184.33;;;9.80;99.90;;;;;;4387188;32;20534;-62
2021/11/11 02:35:54;;;;;;;203.33;192.50;;;9.70;99.90;;;;;;4389167;32;20178;-61
2021/11/11 02:38:23;;;;;;;205.23;194.00;;;9.70;99.90;;;;;;4389577;32;20214;-61
2021/11/11 02:40:51;;;;;;;203.13;193.03;;;9.70;99.90;;;;;;4383787;32;20150;-61
2021/11/11 02:43:18;;;;;;;208.90;198.20;;;9.60;99.90;;;;;;4385712;32;20174;-63
2021/11/11 02:45:47;;;;;;;215.30;203.83;;;9.60;99.90;;;;;;4389977;32;20234;-63
2021/11/11 02:48:18;;;;;;;210.50;199.67;;;9.60;99.90;;;;;;4384226;32;20179;-60
2021/11/11 02:50:45;;;;;;;212.37;201.37;;;9.60;99.90;;;;;;4374786;32;20231;-61
2021/11/11 02:53:12;;;;;;;201.43;190.57;;;9.70;99.90;;;;;;4379701;32;20596;-61
2021/11/11 02:55:41;;;;;;;191.20;181.30;;;9.60;99.90;;;;;;4388775;32;20159;-61
2021/11/11 02:58:09;;;;;;;201.20;190.80;;;9.60;99.90;;;;;;4389951;32;20152;-61
2021/11/11 03:00:43;;;;;;;219.97;208.03;;;9.60;99.90;;;;;;4388833;32;20238;-63
2021/11/11 03:03:10;;;;;;;211.90;200.97;;;9.60;99.90;;;;;;4389686;32;20162;-61
2021/11/11 03:05:37;;;;;;;213.53;202.30;;;9.60;99.90;;;;;;4388532;32;20141;-60
2021/11/11 03:08:05;;;;;;;205.60;194.73;;;9.70;99.90;;;;;;4389024;32;20178;-62
2021/11/11 03:10:32;;;;;;;213.17;202.00;;;9.60;99.90;;;;;;4383063;32;20207;-61
2021/11/11 03:13:01;;;;;;;210.17;199.43;;;9.60;99.90;;;;;;4384845;32;20524;-62
2021/11/11 03:15:30;;;;;;;203.07;192.37;;;9.60;99.90;;;;;;4375236;32;20171;-60
2021/11/11 03:17:58;;;;;;;209.17;198.50;;;9.60;99.90;;;;;;4389295;32;20227;-63
2021/11/11 03:20:25;;;;;;;194.73;184.43;;;9.60;99.90;;;;;;4390146;32;20151;-61
2021/11/11 03:22:55;;;;;;;206.90;196.47;;;9.50;99.90;;;;;;4390573;32;20140;-62
2021/11/11 03:25:25;;;;;;;210.77;198.20;;;9.50;99.90;;;;;;4387984;32;20232;-63
2021/11/11 03:27:52;;;;;;;199.57;188.67;;;9.50;99.90;;;;;;4385387;32;20235;-62
2021/11/11 03:30:22;;;;;;;208.53;197.50;;;9.50;99.90;;;;;;4384340;32;20152;-62
2021/11/11 03:32:51;;;;;;;196.77;186.10;;;9.50;99.90;;;;;;4389575;32;20227;-61
2021/11/11 03:35:17;;;;;;;198.40;187.43;;;9.60;99.90;;;;;;4391531;32;20160;-61
2021/11/11 03:37:45;;;;;;;211.87;200.70;;;9.60;99.90;;;;;;4391599;32;20176;-64
2021/11/11 03:40:14;;;;;;;202.13;191.17;;;9.50;99.90;;;;;;4391727;32;20536;-61
2021/11/11 03:42:45;;;;;;;217.30;205.53;;;9.50;99.90;;;;;;4391524;32;20160;-61
2021/11/11 03:45:12;;;;;;;208.07;197.00;;;9.50;99.90;;;;;;4386532;32;20194;-61
2021/11/11 03:47:40;;;;;;;195.43;185.30;;;9.50;99.90;;;;;;4379811;32;20172;-61
2021/11/11 03:50:08;;;;;;;198.33;187.80;;;9.50;99.90;;;;;;4391923;32;20159;-62
2021/11/11 03:52:35;;;;;;;211.77;200.77;;;9.50;99.90;;;;;;4390699;32;20155;-61
2021/11/11 03:55:03;;;;;;;198.30;187.73;;;9.40;99.90;;;;;;4391686;32;20246;-61
2021/11/11 03:57:30;;;;;;;200.50;190.03;;;9.50;99.90;;;;;;4391118;32;20163;-62
2021/11/11 03:59:57;;;;;;;217.70;206.50;;;9.50;99.90;;;;;;4390615;32;20171;-62
2021/11/11 04:02:25;;;;;;;196.57;185.83;;;9.60;99.90;;;;;;4392363;32;20151;-61
2021/11/11 04:04:54;;;;;;;222.20;210.10;;;9.50;99.90;;;;;;4391124;32;20171;-61
2021/11/11 04:07:21;;;;;;;216.90;205.37;;;9.50;99.90;;;;;;4383154;32;20226;-61
2021/11/11 04:09:48;;;;;;;209.40;198.33;;;9.50;99.90;;;;;;4388868;32;20156;-61
2021/11/11 04:12:16;;;;;;;215.00;203.70;;;9.50;99.90;;;;;;4389388;32;20624;-61
2021/11/11 04:14:43;;;;;;;202.87;192.23;;;9.50;99.90;;;;;;4390904;32;20206;-61
2021/11/11 04:17:10;;;;;;;219.47;208.27;;;9.50;99.90;;;;;;4376630;32;20151;-63
2021/11/11 04:19:37;;;;;;;210.20;199.33;;;9.50;99.90;;;;;;4379474;32;20216;-63
2021/11/11 04:22:06;;;;;;;205.13;194.10;;;9.50;99.90;;;;;;4389819;32;20166;-62
2021/11/11 04:24:33;;;;;;;200.90;190.77;;;9.40;99.90;;;;;;4376336;32;20197;-61
2021/11/11 04:27:04;;;;;;;217.73;206.77;;;9.30;99.90;;;;;;4392621;32;20156;-61
2021/11/11 04:29:33;;;;;;;198.37;187.57;;;9.30;99.90;;;;;;4391636;32;20251;-61
2021/11/11 04:32:01;;;;;;;207.50;196.53;;;9.30;99.90;;;;;;4390660;32;20146;-61
2021/11/11 04:34:30;;;;;;;212.10;200.40;;;9.40;99.90;;;;;;4392282;32;20193;-61
2021/11/11 04:42:56;;;;;;;222.20;210.43;;;9.50;99.90;;;;;;4343679;33;20250;-62
2021/11/11 05:02:41;;;;;;;205.10;194.37;;;9.60;99.90;;;;;;4250306;33;20175;-62
2021/11/11 05:05:08;;;;;;;209.00;198.10;;;9.50;99.90;;;;;;4256041;33;20171;-63
2021/11/11 05:07:35;;;;;;;206.67;195.30;;;9.60;99.90;;;;;;4247130;33;20159;-61
2021/11/11 05:10:02;;;;;;;222.73;211.03;;;9.60;99.90;;;;;;4242160;33;20202;-62
2021/11/11 05:12:31;;;;;;;227.87;215.80;;;9.50;99.90;;;;;;4247545;33;20182;-61
2021/11/11 05:14:58;;;;;;;236.23;223.53;;;9.40;99.90;;;;;;4242679;33;20544;-61
2021/11/11 05:17:26;;;;;;;223.80;211.60;;;9.40;99.90;;;;;;4294979;33;20178;-62
2021/11/11 05:19:53;;;;;;;211.27;199.87;;;9.30;99.90;;;;;;4302504;33;20232;-61
2021/11/11 05:22:21;;;;;;;242.10;229.50;;;9.20;99.90;;;;;;4299488;33;20177;-61
2021/11/11 05:24:48;;;;;;;230.53;218.37;;;9.20;99.90;;;;;;4299908;33;20251;-64
2021/11/11 05:27:15;;;;;;;244.90;231.60;;;9.20;99.90;;;;;;4298849;33;20259;-60
2021/11/11 05:29:44;;;;;;;251.00;237.67;;;9.20;99.90;;;;;;4300472;33;20173;-61
2021/11/11 05:32:11;;;;;;;253.37;240.13;;;9.10;99.90;;;;;;4309879;33;20189;-61
2021/11/11 05:34:38;;;;;;;277.03;262.17;;;9.10;99.90;;;;;;4314249;33;20165;-62
2021/11/11 05:37:06;;;;;;;272.93;258.83;;;9.10;99.90;;;;;;4378104;32;20167;-62
2021/11/11 05:39:33;;;;;;;298.13;282.73;;;9.10;99.90;;;;;;4391567;32;20177;-64
2021/11/11 05:42:00;;;;;;;301.63;286.40;;;9.10;99.90;;;;;;4389558;32;20189;-61
2021/11/11 05:44:27;;;;;;;306.90;290.90;;;9.00;99.90;;;;;;4390848;32;20143;-64
2021/11/11 05:46:56;;;;;;;316.17;300.00;;;9.00;99.90;;;;;;4390273;32;20516;-64
2021/11/11 05:49:23;;;;;;;317.57;301.07;;;9.00;99.90;;;;;;4384043;32;20161;-62
2021/11/11 05:51:50;;;;;;;339.63;321.90;;;9.00;99.90;;;;;;4389993;32;20229;-61
2021/11/11 05:54:17;;;;;;;321.20;304.23;;;9.10;99.90;;;;;;4390075;32;20156;-63
2021/11/11 05:56:44;;;;;;;316.03;299.53;;;9.10;99.90;;;;;;4391733;32;20227;-63
2021/11/11 05:59:11;;;;;;;300.43;284.60;;;9.10;99.90;;;;;;4379861;32;20189;-61
2021/11/11 06:01:38;;;;;;;327.33;310.47;;;9.10;99.90;;;;;;4382481;32;20223;-63
2021/11/11 06:04:06;;;;;;;302.67;287.40;;;9.00;99.90;;;;;;4388665;32;20178;-63
2021/11/11 06:06:33;;;;;;;300.37;284.63;;;9.00;99.90;;;;;;4388963;32;20134;-62
2021/11/11 06:09:00;;;;;;;299.13;283.87;;;9.00;99.90;;;;;;4387505;32;20147;-63
2021/11/11 06:11:27;;;;;;;281.43;266.30;;;9.10;99.90;;;;;;4391562;32;20210;-62
2021/11/11 06:13:54;;;;;;;268.67;254.63;;;9.10;99.90;;;;;;4387677;32;20159;-62
2021/11/11 06:16:29;;;;;;;270.13;256.03;;;9.10;99.90;;;;;;4389521;32;20164;-61
2021/11/11 06:18:56;;;;;;;283.53;268.90;;;9.10;99.90;;;;;;4385597;32;20169;-62
2021/11/11 06:21:24;;;;;;;292.47;277.00;;;9.10;99.90;;;;;;4388513;32;20591;-63
2021/11/11 06:23:54;;;;;;;310.37;293.93;;;9.10;99.90;;;;;;4387903;32;20140;-61
2021/11/11 06:26:22;;;;;;;311.10;294.97;;;9.10;99.90;;;;;;4388024;32;20223;-60
2021/11/11 06:28:50;;;;;;;308.47;292.60;;;9.30;99.90;;;;;;4389060;32;20163;-62
2021/11/11 06:31:17;;;;;;;288.90;273.33;;;9.30;99.90;;;;;;4385945;32;20215;-63
2021/11/11 06:33:44;;;;;;;290.13;275.17;;;9.30;99.90;;;;;;4389658;32;20186;-60
2021/11/11 06:36:12;;;;;;;295.90;280.13;;;9.30;99.90;;;;;;4389090;32;20164;-62
2021/11/11 06:38:40;;;;;;;278.17;263.70;;;9.40;99.90;;;;;;4388406;32;20228;-62
2021/11/11 06:41:07;;;;;;;290.83;275.87;;;9.40;99.90;;;;;;4390254;32;20587;-63
2021/11/11 06:43:34;;;;;;;281.57;266.80;;;9.40;99.90;;;;;;4386097;32;20228;-64
2021/11/11 06:46:01;;;;;;;269.53;255.10;;;9.50;99.90;;;;;;4388862;32;20174;-64
2021/11/11 06:48:28;;;;;;;243.10;230.40;;;9.50;99.90;;;;;;4387796;32;20640;-61
2021/11/11 06:51:04;;;;;;;247.23;234.47;;;9.50;99.90;;;;;;4387215;32;20144;-62
2021/11/11 06:53:32;;;;;;;243.67;230.67;;;9.50;99.90;;;;;;4385540;32;20154;-62
2021/11/11 06:56:00;;;;;;;249.23;235.93;;;9.50;99.90;;;;;;4385478;32;20144;-62
2021/11/11 06:58:28;;;;;;;237.50;224.73;;;9.50;99.90;;;;;;4386680;32;20302;-64
2021/11/11 07:00:57;;;;;;;241.67;229.17;;;9.50;99.90;;;;;;4384991;32;20275;-64
2021/11/11 07:03:25;;;;;;;231.03;218.53;;;9.50;99.90;;;;;;4387996;32;20193;-61
2021/11/11 07:05:52;;;;;;;234.93;221.97;;;9.50;99.90;;;;;;4389494;32;20171;-62
2021/11/11 07:08:18;;;;;;;246.67;233.20;;;9.50;99.90;;;;;;4389642;32;20165;-62
2021/11/11 07:10:48;;;;;;;237.70;225.17;;;9.40;99.90;;;;;;4390753;32;20544;-62
2021/11/11 07:13:17;;;;;;;231.70;219.07;;;9.50;99.90;;;;;;4387255;32;20188;-61
2021/11/11 07:15:45;;;;;;;239.57;226.57;;;9.50;99.90;;;;;;4390332;32;20239;-61
2021/11/11 07:18:13;;;;;;;240.43;227.83;;;9.50;99.90;;;;;;4390650;32;20150;-61
2021/11/11 07:20:43;;;;;;;250.30;237.30;;;9.60;99.90;;;;;;4390712;32;20170;-62
2021/11/11 07:23:12;;;;;;;231.73;219.00;;;9.60;99.90;;;;;;4390966;32;20250;-62
2021/11/11 07:25:39;;;;;;;230.97;218.67;;;9.60;99.90;;;;;;4391886;32;20231;-62
2021/11/11 07:28:06;;;;;;;227.43;215.03;;;9.70;99.90;;;;;;4389349;32;20216;-61
2021/11/11 07:30:35;;;;;;;236.13;223.43;;;9.60;99.90;;;;;;4389575;32;20164;-61
2021/11/11 07:33:02;;;;;;;240.13;227.60;;;9.70;99.90;;;;;;4391706;32;20548;-62
2021/11/11 07:35:29;;;;;;;229.23;216.30;;;9.80;99.90;;;;;;4390971;32;20145;-61
2021/11/11 07:37:57;;;;;;;233.17;220.70;;;9.80;99.90;;;;;;4393570;32;20223;-61
2021/11/11 07:40:26;;;;;;;224.07;212.10;;;9.90;99.90;;;;;;4392822;32;20228;-61
2021/11/11 07:42:53;;;;;;;232.20;218.97;;;9.90;99.90;;;;;;4390130;32;20526;-62
2021/11/11 07:45:24;;;;;;;228.87;216.30;;;10.00;99.90;;;;;;4389939;32;20167;-62
2021/11/11 07:47:55;;;;;;;202.07;190.33;;;10.00;99.90;;;;;;4389502;32;20219;-62
2021/11/11 07:50:23;;;;;;;200.23;188.63;;;10.00;99.90;;;;;;4388663;32;20152;-61
2021/11/11 07:52:50;;;;;;;193.70;183.00;;;10.00;99.90;;;;;;4390348;32;20150;-61
2021/11/11 07:55:17;;;;;;;189.70;179.30;;;10.10;99.90;;;;;;4389792;32;20186;-61
2021/11/11 07:57:47;;;;;;;181.53;171.13;;;10.10;99.90;;;;;;4385653;32;20203;-62
2021/11/11 08:00:16;;;;;;;195.37;183.93;;;10.20;99.90;;;;;;4377094;32;20625;-61
2021/11/11 08:02:47;;;;;;;206.23;193.97;;;10.00;99.90;;;;;;4388109;32;20153;-61
2021/11/11 08:05:20;;;;;;;184.60;174.10;;;10.00;99.90;;;;;;4388069;32;20164;-61
2021/11/11 08:07:48;;;;;;;176.00;165.80;;;10.10;99.90;;;;;;4392869;32;20159;-61
2021/11/11 08:10:17;;;;;;;186.30;175.50;;;10.10;99.90;;;;;;4390610;32;20160;-61
2021/11/11 08:12:44;;;;;;;185.37;174.97;;;10.10;99.90;;;;;;4390764;32;20156;-61
2021/11/11 08:15:11;;;;;;;186.70;175.53;;;10.10;99.90;;;;;;4392290;32;20196;-61
2021/11/11 08:17:38;;;;;;;201.43;189.40;;;10.10;99.90;;;;;;4392213;32;20184;-61
2021/11/11 08:20:07;;;;;;;184.17;173.70;;;10.10;99.90;;;;;;4386308;32;20470;-60
2021/11/11 08:22:38;;;;;;;202.27;191.23;;;10.10;99.90;;;;;;4390747;32;20140;-61
2021/11/11 08:25:08;;;;;;;181.37;171.03;;;10.20;99.90;;;;;;4389248;32;20140;-61
2021/11/11 08:27:35;;;;;;;198.87;187.70;;;10.20;99.90;;;;;;4390545;32;20197;-61
2021/11/11 08:30:03;;;;;;;191.97;181.30;;;10.30;99.90;;;;;;4391069;32;20207;-61
2021/11/11 08:32:30;;;;;;;185.93;175.07;;;10.20;99.90;;;;;;4392429;32;20148;-61
2021/11/11 08:34:57;;;;;;;186.10;175.43;;;10.30;99.90;;;;;;4390683;32;20171;-61
2021/11/11 08:37:24;;;;;;;194.80;184.47;;;10.20;99.90;;;;;;4388968;32;20162;-61
2021/11/11 08:39:52;;;;;;;176.33;165.40;;;10.30;99.90;;;;;;4389121;32;20458;-61
2021/11/11 08:42:19;;;;;;;179.80;168.93;;;10.30;99.90;;;;;;4390167;32;20176;-62
2021/11/11 08:44:47;;;;;;;196.43;185.60;;;10.30;99.90;;;;;;4392313;32;20235;-62
2021/11/11 08:47:15;;;;;;;186.13;175.17;;;10.40;99.90;;;;;;4390322;32;20179;-61
2021/11/11 08:49:44;;;;;;;191.50;180.83;;;10.50;99.90;;;;;;4390331;32;20675;-61
2021/11/11 08:52:12;;;;;;;185.67;174.97;;;10.50;99.90;;;;;;4389142;32;20190;-62
2021/11/11 08:54:39;;;;;;;181.47;170.93;;;10.60;99.90;;;;;;4387525;32;20167;-61
2021/11/11 08:57:08;;;;;;;185.50;174.67;;;10.70;99.90;;;;;;4388767;32;20207;-61
2021/11/11 08:59:35;;;;;;;188.43;177.30;;;10.80;99.90;;;;;;4389572;32;20148;-61
2021/11/11 09:02:02;;;;;;;184.17;173.60;;;10.80;99.90;;;;;;4378913;32;20185;-61
2021/11/11 09:04:29;;;;;;;188.93;178.13;;;10.90;99.90;;;;;;4375410;32;20214;-61
2021/11/11 09:07:00;;;;;;;182.37;172.67;;;10.90;99.90;;;;;;4377206;32;20550;-61
2021/11/11 09:09:28;;;;;;;189.73;178.60;;;10.90;99.90;;;;;;4376981;32;20577;-61
2021/11/11 09:11:56;;;;;;;169.17;158.77;;;11.00;99.90;;;;;;4381334;32;20137;-61
2021/11/11 09:14:24;;;;;;;172.60;162.70;;;10.90;99.90;;;;;;4391296;32;20167;-61
2021/11/11 09:16:51;;;;;;;192.83;181.80;;;11.00;99.90;;;;;;4390538;32;20167;-63
2021/11/11 09:19:18;;;;;;;178.37;168.47;;;11.00;99.90;;;;;;4390467;32;20167;-61
2021/11/11 09:21:45;;;;;;;191.17;178.87;;;11.10;99.90;;;;;;4390362;32;20148;-61
2021/11/11 09:24:12;;;;;;;182.67;171.83;;;11.10;99.90;;;;;;4390498;32;20167;-62
2021/11/11 09:26:40;;;;;;;186.17;175.40;;;11.30;99.90;;;;;;4390000;32;20563;-62
2021/11/11 09:29:09;;;;;;;196.83;186.40;;;11.40;99.90;;;;;;4383259;32;20164;-61
2021/11/11 09:31:38;;;;;;;186.67;175.90;;;11.50;99.90;;;;;;4376315;32;20167;-61
2021/11/11 09:34:06;;;;;;;181.80;171.77;;;11.60;99.90;;;;;;4377335;32;20148;-62
2021/11/11 09:36:34;;;;;;;196.33;184.60;;;11.50;99.90;;;;;;4376929;32;20576;-62
2021/11/11 09:39:03;;;;;;;184.27;173.60;;;11.50;99.90;;;;;;4376416;32;20456;-62
2021/11/11 09:41:30;;;;;;;191.33;179.87;;;11.40;99.90;;;;;;4377534;32;20141;-62
2021/11/11 09:43:57;;;;;;;190.17;178.73;;;11.30;99.90;;;;;;4375529;32;20156;-61
2021/11/11 09:46:24;;;;;;;192.17;180.77;;;11.30;99.90;;;;;;4385606;32;20599;-62
2021/11/11 09:48:53;;;;;;;184.27;173.53;;;11.20;99.90;;;;;;4390008;32;20152;-62
2021/11/11 09:51:23;;;;;;;186.87;175.60;;;11.20;99.90;;;;;;4384666;32;20629;-62
2021/11/11 09:53:59;;;;;;;190.70;179.57;;;11.30;99.90;;;;;;4386682;32;20158;-62
2021/11/11 09:59:10;;;;;;;195.73;184.37;;;11.60;99.90;;;;;;4377310;32;20156;-62
2021/11/11 10:01:37;;;;;;;180.33;169.53;;;11.70;99.90;;;;;;4384075;32;20152;-62
2021/11/11 10:04:06;;;;;;;176.73;166.03;;;11.80;99.90;;;;;;4389543;32;20168;-62
2021/11/11 10:06:33;;;;;;;182.47;171.43;;;11.90;99.90;;;;;;4387601;32;20221;-61
2021/11/11 10:09:10;;;;;;;189.07;178.17;;;11.80;99.90;;;;;;4389646;32;20231;-62
2021/11/11 10:11:40;;;;;;;187.07;175.90;;;11.70;99.90;;;;;;4389873;32;20148;-61
2021/11/11 10:14:10;;;;;;;197.43;186.07;;;11.70;99.90;;;;;;4390215;32;20188;-61
2021/11/11 10:16:41;;;;;;;198.13;186.10;;;11.80;99.90;;;;;;4390576;32;20216;-61
2021/11/11 10:19:09;;;;;;;205.93;194.00;;;11.70;99.90;;;;;;4390174;32;20163;-61
2021/11/11 10:21:42;;;;;;;185.80;174.57;;;11.80;99.90;;;;;;4385775;32;20149;-61
2021/11/11 10:24:23;;;;;;;191.90;179.97;;;11.80;99.90;;;;;;4386142;32;20148;-62
2021/11/11 10:26:54;;;;;;;187.43;176.33;;;11.80;99.90;;;;;;4389246;32;20614;-62
2021/11/11 10:29:30;;;;;;;195.47;183.90;;;11.80;99.90;;;;;;4373995;32;20157;-62
2021/11/11 10:32:01;;;;;;;191.47;179.83;;;11.80;99.90;;;;;;4380345;32;20206;-62
2021/11/11 10:34:29;;;;;;;195.50;184.37;;;11.90;99.90;;;;;;4390052;32;20484;-62
2021/11/11 10:36:57;;;;;;;194.90;183.77;;;12.00;99.90;;;;;;4388638;32;20179;-62
2021/11/11 10:39:26;;;;;;;194.23;182.90;;;12.00;99.90;;;;;;4393678;32;20148;-62
2021/11/11 10:41:55;;;;;;;190.33;179.47;;;12.00;99.90;;;;;;4392764;32;20226;-62
2021/11/11 10:44:30;;;;;;;191.77;181.07;;;12.10;99.90;;;;;;4392254;32;20226;-61
2021/11/11 10:47:00;;;;;;;204.23;192.70;;;12.10;99.90;;;;;;4392858;32;20206;-62
2021/11/11 10:49:38;;;;;;;203.40;191.60;;;12.10;99.90;;;;;;4391902;32;20639;-62
2021/11/11 10:52:23;;;;;;;206.67;194.70;;;12.30;99.90;;;;;;4391969;32;20174;-62
2021/11/11 10:55:17;;;;;;;197.93;186.30;;;12.30;99.90;;;;;;4392056;32;20219;-62
2021/11/11 10:57:49;;;;;;;194.37;182.47;;;12.30;99.90;;;;;;4392539;32;20168;-62
2021/11/11 11:00:20;;;;;;;192.30;180.90;;;12.30;99.90;;;;;;4391676;32;20238;-62
2021/11/11 11:03:00;;;;;;;203.80;191.90;;;12.10;99.90;;;;;;4391574;32;20237;-63
2021/11/11 11:05:31;;;;;;;192.40;181.73;;;12.10;99.90;;;;;;4392438;32;20191;-62
2021/11/11 11:08:07;;;;;;;192.60;181.40;;;12.10;99.90;;;;;;4392006;32;20156;-62
2021/11/11 11:10:36;;;;;;;197.00;184.73;;;12.00;99.90;;;;;;4391148;32;20144;-62
2021/11/11 11:13:10;;;;;;;206.00;193.80;;;12.00;99.90;;;;;;4391249;32;20202;-62
2021/11/11 11:15:46;;;;;;;196.50;184.93;;;12.10;99.90;;;;;;4391194;32;20526;-62
2021/11/11 11:18:14;;;;;;;206.87;194.50;;;12.20;99.90;;;;;;4391308;32;20223;-62
2021/11/11 11:20:44;;;;;;;213.80;201.83;;;12.30;99.90;;;;;;4392491;32;20255;-62
2021/11/11 11:23:33;;;;;;;213.10;200.87;;;12.20;99.90;;;;;;4391750;32;20156;-62
2021/11/11 11:26:16;;;;;;;198.43;187.13;;;12.20;99.90;;;;;;4391049;32;20635;-62
2021/11/11 11:29:04;;;;;;;193.90;182.50;;;12.30;99.90;;;;;;4391697;32;20144;-62
2021/11/11 11:31:42;;;;;;;198.50;186.53;;;12.30;99.90;;;;;;4393553;32;20175;-62
2021/11/11 11:34:11;;;;;;;195.77;183.77;;;12.30;99.90;;;;;;4393304;32;20179;-62
2021/11/11 11:36:44;;;;;;;203.73;192.13;;;12.30;99.90;;;;;;4391561;32;20186;-62
2021/11/11 11:39:13;;;;;;;209.37;198.03;;;12.40;99.90;;;;;;4393205;32;20148;-62
2021/11/11 11:41:42;;;;;;;199.53;188.03;;;12.60;99.90;;;;;;4391167;32;20147;-62
2021/11/11 11:44:30;;;;;;;212.77;200.50;;;12.70;99.90;;;;;;4389733;32;20179;-62
2021/11/11 11:47:08;;;;;;;205.13;192.70;;;12.70;99.90;;;;;;4391305;32;20210;-62
2021/11/11 11:49:37;;;;;;;194.40;181.87;;;12.80;99.90;;;;;;4390419;32;20167;-62
2021/11/11 11:52:07;;;;;;;209.50;196.77;;;12.90;99.90;;;;;;4391188;32;20167;-62
2021/11/11 11:54:39;;;;;;;192.60;181.07;;;12.90;99.90;;;;;;4390535;32;20630;-62
2021/11/11 11:57:13;;;;;;;210.07;198.00;;;13.00;99.90;;;;;;4388348;32;20202;-62
2021/11/11 11:59:45;;;;;;;198.70;186.83;;;13.00;99.90;;;;;;4391356;32;20574;-62
2021/11/11 12:10:53;;;;;;;190.43;178.97;;;12.90;99.90;;;;;;4301314;33;20162;-62
2021/11/11 12:13:31;;;;;;;209.47;197.40;;;12.90;99.90;;;;;;4300595;33;20172;-62
2021/11/11 12:16:18;;;;;;;206.60;194.27;;;12.90;99.90;;;;;;4300558;33;20229;-62
2021/11/11 12:34:31;;;;;;;204.63;193.20;;;12.80;99.90;;;;;;4287393;33;20154;-62
2021/11/11 12:39:51;;;;;;;218.80;207.23;;;12.70;99.90;;;;;;4299026;33;20185;-62
2021/11/11 12:42:20;;;;;;;227.73;215.37;;;12.70;99.90;;;;;;4319336;33;20583;-62
2021/11/11 12:45:05;;;;;;;218.97;206.23;;;12.80;99.90;;;;;;4326935;33;20252;-61
2021/11/11 12:47:35;;;;;;;223.87;211.70;;;12.90;99.90;;;;;;4327555;33;20372;-62
2021/11/11 12:50:34;;;;;;;222.50;210.53;;;12.90;99.90;;;;;;4327048;33;20185;-63
2021/11/11 12:53:40;;;;;;;212.43;201.07;;;13.00;99.90;;;;;;4323778;33;20217;-64
2021/11/11 12:56:27;;;;;;;208.17;196.70;;;13.00;99.90;;;;;;4323689;33;20164;-62
2021/11/11 12:59:04;;;;;;;197.97;187.53;;;13.10;99.90;;;;;;4327070;33;20154;-62
2021/11/11 13:01:36;;;;;;;208.73;197.80;;;13.10;99.90;;;;;;4325589;33;20908;-62
2021/11/11 13:04:14;;;;;;;198.90;188.33;;;13.10;99.90;;;;;;4327025;33;20153;-62
2021/11/11 13:06:45;;;;;;;203.30;192.70;;;13.00;99.90;;;;;;4325219;33;20223;-62
2021/11/11 13:09:24;;;;;;;197.17;186.77;;;12.90;99.90;;;;;;4349675;32;20648;-63
2021/11/11 13:11:55;;;;;;;213.93;203.00;;;12.80;99.90;;;;;;4388980;32;20227;-62
2021/11/11 13:14:25;;;;;;;209.83;198.93;;;12.60;99.90;;;;;;4389350;32;20628;-63
2021/11/11 13:17:14;;;;;;;211.50;200.13;;;12.60;99.90;;;;;;4388400;32;20151;-63